Time;durP1;ratioP1;P1;durP2;ratioP2;P2;SDS_P1;SDS_P2;PMS_P1;PMS_P2;Temp;Humidity;BMP_temperature;BMP_pressure;BME280_temperature;BME280_humidity;BME280_pressure;Samples;Min_cycle;Max_cycle;Signal;HPM_P1;HPM_P2
2022/08/23 00:01:24;;;;;;;3.08;0.90;;;19.60;99.90;;;;;;4984728;28;20129;-61
2022/08/23 00:03:54;;;;;;;3.50;0.95;;;19.60;99.90;;;;;;4970775;28;20127;-61
2022/08/23 00:06:21;;;;;;;4.95;1.35;;;19.60;99.90;;;;;;4988120;28;20047;-61
2022/08/23 00:08:50;;;;;;;2.60;1.38;;;19.60;99.90;;;;;;4987490;28;20086;-61
2022/08/23 00:11:35;;;;;;;1.48;0.82;;;19.60;99.90;;;;;;4987953;28;20525;-61
2022/08/23 00:14:19;;;;;;;1.75;0.50;;;19.60;99.90;;;;;;4987801;28;20082;-60
2022/08/23 00:16:46;;;;;;;;;;;19.50;99.90;;;;;;4972359;28;20058;-60
2022/08/23 00:19:15;;;;;;;1.10;0.55;;;19.50;99.90;;;;;;4987663;28;19990;-61
2022/08/23 00:21:42;;;;;;;1.10;0.70;;;19.50;99.90;;;;;;4970980;28;20050;-61
2022/08/23 00:24:10;;;;;;;3.33;0.70;;;19.60;99.90;;;;;;4969817;28;20470;-60
2022/08/23 00:26:51;;;;;;;1.17;0.90;;;19.60;99.90;;;;;;4976022;28;20545;-62
2022/08/23 00:29:18;;;;;;;1.95;1.00;;;19.60;99.90;;;;;;4971056;28;20155;-61
2022/08/23 00:31:45;;;;;;;1.92;0.80;;;19.60;99.90;;;;;;4987891;28;20073;-61
2022/08/23 00:34:12;;;;;;;1.45;0.70;;;19.70;99.90;;;;;;4987575;28;20081;-61
2022/08/23 00:36:39;;;;;;;1.60;0.73;;;19.70;99.90;;;;;;4970498;28;20138;-60
2022/08/23 00:39:06;;;;;;;1.85;0.70;;;19.60;99.90;;;;;;4987261;28;20077;-61
2022/08/23 00:41:33;;;;;;;1.13;0.70;;;19.60;99.90;;;;;;4987850;28;20090;-62
2022/08/23 00:49:38;;;;;;;1.67;0.98;;;19.60;99.90;;;;;;4976324;28;20537;-61
2022/08/23 00:52:29;;;;;;;0.88;0.80;;;19.70;99.90;;;;;;4973974;28;20057;-61
2022/08/23 00:54:56;;;;;;;1.70;0.77;;;19.70;99.90;;;;;;4973305;28;20080;-61
2022/08/23 00:57:23;;;;;;;1.35;0.70;;;19.70;99.90;;;;;;4629156;28;10000472;-61
2022/08/23 00:59:50;;;;;;;2.72;1.58;;;19.60;99.90;;;;;;4973383;28;20077;-61
2022/08/23 01:02:17;;;;;;;1.58;0.93;;;19.60;99.90;;;;;;4990682;28;20050;-62
2022/08/23 01:04:49;;;;;;;1.48;0.80;;;19.70;99.90;;;;;;4973381;28;20129;-60
2022/08/23 01:07:31;;;;;;;1.60;0.70;;;19.60;99.90;;;;;;4973806;28;20062;-61
2022/08/23 01:10:00;;;;;;;1.00;0.90;;;19.60;99.90;;;;;;4973052;28;20161;-61
2022/08/23 01:12:35;;;;;;;2.42;0.90;;;19.60;99.90;;;;;;4973449;28;20046;-61
2022/08/23 01:15:07;;;;;;;4.72;1.20;;;19.70;99.90;;;;;;4973795;28;20443;-61
2022/08/23 01:17:46;;;;;;;4.10;1.77;;;19.60;99.90;;;;;;4990703;28;20162;-61
2022/08/23 01:20:15;;;;;;;2.65;1.30;;;19.70;99.90;;;;;;4990404;28;20137;-61
2022/08/23 01:23:01;;;;;;;1.63;0.98;;;19.70;99.90;;;;;;4972851;28;20117;-61
2022/08/23 01:25:29;;;;;;;4.35;1.73;;;19.70;99.90;;;;;;4990121;28;20122;-61
2022/08/23 01:27:56;;;;;;;5.20;2.03;;;19.70;99.90;;;;;;4972791;28;20120;-61
2022/08/23 01:30:24;;;;;;;1.85;1.17;;;19.70;99.90;;;;;;4960539;28;20403;-60
2022/08/23 01:32:54;;;;;;;2.67;1.90;;;19.70;99.90;;;;;;4971144;28;20133;-62
2022/08/23 01:35:29;;;;;;;5.88;2.05;;;19.70;99.90;;;;;;4972717;28;20086;-62
2022/08/23 01:37:55;;;;;;;3.20;1.42;;;19.80;99.90;;;;;;4989881;28;20117;-60
2022/08/23 01:40:22;;;;;;;1.85;1.35;;;19.80;99.90;;;;;;4972550;28;20057;-61
2022/08/23 01:42:49;;;;;;;3.67;1.70;;;19.90;99.90;;;;;;4989865;28;20096;-60
2022/08/23 01:45:16;;;;;;;5.95;1.42;;;19.90;99.90;;;;;;4968700;28;20042;-61
2022/08/23 01:47:43;;;;;;;3.97;1.55;;;19.90;99.90;;;;;;4990380;28;20157;-60
2022/08/23 01:50:11;;;;;;;2.28;1.40;;;19.90;99.90;;;;;;4972680;28;20141;-61
2022/08/23 01:52:38;;;;;;;2.72;1.50;;;19.80;99.90;;;;;;4972925;28;20061;-61
2022/08/23 01:55:13;;;;;;;2.78;1.80;;;19.80;99.90;;;;;;4989083;28;20450;-61
2022/08/23 01:57:40;;;;;;;5.53;2.30;;;19.70;99.90;;;;;;4989894;28;20077;-61
2022/08/23 02:00:07;;;;;;;6.85;1.73;;;19.80;99.90;;;;;;4989710;28;20117;-60
2022/08/23 02:02:34;;;;;;;4.28;1.80;;;19.70;99.90;;;;;;4988518;28;20082;-61
2022/08/23 02:05:01;;;;;;;6.07;2.67;;;19.80;99.90;;;;;;4989742;28;20133;-60
2022/08/23 02:07:28;;;;;;;4.40;2.53;;;19.70;99.90;;;;;;4989698;28;20088;-61
2022/08/23 02:09:55;;;;;;;6.20;2.80;;;19.70;99.90;;;;;;4989537;28;20125;-61
2022/08/23 02:12:22;;;;;;;4.75;2.88;;;19.60;99.90;;;;;;4989249;28;20129;-61
2022/08/23 02:14:48;;;;;;;4.65;3.08;;;19.70;99.90;;;;;;4989435;28;20047;-61
2022/08/23 02:17:15;;;;;;;4.47;3.10;;;19.70;99.90;;;;;;4989508;28;20133;-60
2022/08/23 02:19:42;;;;;;;5.85;3.97;;;19.70;99.90;;;;;;4990107;28;20089;-62
2022/08/23 02:22:10;;;;;;;6.65;3.90;;;19.70;99.90;;;;;;4989321;28;20263;-61
2022/08/23 02:24:44;;;;;;;5.82;3.75;;;19.70;99.90;;;;;;4989188;28;20070;-63
2022/08/23 02:27:14;;;;;;;6.78;3.92;;;19.60;99.90;;;;;;4979968;28;20101;-61
2022/08/23 02:29:43;;;;;;;6.85;4.63;;;19.70;99.90;;;;;;4989501;28;20053;-61
2022/08/23 02:32:11;;;;;;;5.82;4.00;;;19.70;99.90;;;;;;4989221;28;20385;-61
2022/08/23 02:34:38;;;;;;;7.10;4.40;;;19.70;99.90;;;;;;4989191;28;20054;-61
2022/08/23 02:37:06;;;;;;;8.05;5.53;;;19.70;99.90;;;;;;4989110;28;20050;-63
2022/08/23 02:39:32;;;;;;;6.68;4.90;;;19.70;99.90;;;;;;4989046;28;20133;-61
2022/08/23 02:41:59;;;;;;;8.35;5.97;;;19.70;99.90;;;;;;4988782;28;20533;-61
2022/08/23 02:44:26;;;;;;;7.10;5.85;;;19.70;99.90;;;;;;4985619;28;20100;-61
2022/08/23 02:46:54;;;;;;;9.15;6.10;;;19.70;99.90;;;;;;4971775;28;20054;-61
2022/08/23 02:49:21;;;;;;;8.38;5.45;;;19.70;99.90;;;;;;4971538;28;20536;-61
2022/08/23 02:51:48;;;;;;;7.05;5.40;;;19.70;99.90;;;;;;4988991;28;20047;-61
2022/08/23 02:54:15;;;;;;;12.05;6.97;;;19.70;99.90;;;;;;4988452;28;20074;-60
2022/08/23 02:56:42;;;;;;;9.63;6.70;;;19.70;99.90;;;;;;4971398;28;20141;-60
2022/08/23 02:59:08;;;;;;;8.45;6.95;;;19.70;99.90;;;;;;4971583;28;20046;-61
2022/08/23 03:01:37;;;;;;;9.48;7.05;;;19.80;99.90;;;;;;4988945;28;20450;-59
2022/08/23 03:04:06;;;;;;;10.05;6.82;;;19.70;99.90;;;;;;4988518;28;20206;-60
2022/08/23 03:06:33;;;;;;;10.20;7.28;;;19.70;99.90;;;;;;4970771;28;20097;-64
2022/08/23 03:08:59;;;;;;;14.13;7.40;;;19.80;99.90;;;;;;4970826;28;20046;-61
2022/08/23 03:11:27;;;;;;;13.65;7.38;;;19.80;99.90;;;;;;4988666;28;20089;-60
2022/08/23 03:13:55;;;;;;;11.10;7.15;;;19.80;99.90;;;;;;4988383;28;20081;-60
2022/08/23 03:16:22;;;;;;;12.20;7.60;;;19.80;99.90;;;;;;4988873;28;20046;-61
2022/08/23 03:18:49;;;;;;;9.85;6.65;;;19.80;99.90;;;;;;4988457;28;20085;-61
2022/08/23 03:21:16;;;;;;;11.30;7.70;;;19.90;99.90;;;;;;4988584;28;20077;-61
2022/08/23 03:23:44;;;;;;;8.48;6.07;;;19.80;99.90;;;;;;4988039;28;20050;-60
2022/08/23 03:26:11;;;;;;;9.40;6.72;;;19.80;99.90;;;;;;4988595;28;20557;-61
2022/08/23 03:28:38;;;;;;;7.53;6.45;;;19.90;99.90;;;;;;4971189;28;20085;-61
2022/08/23 03:31:05;;;;;;;10.32;7.00;;;19.90;99.90;;;;;;4988807;28;20398;-61
2022/08/23 03:33:33;;;;;;;10.70;6.88;;;19.90;99.90;;;;;;4988208;28;20129;-62
2022/08/23 03:36:00;;;;;;;8.45;6.80;;;20.00;99.90;;;;;;4988424;28;20481;-62
2022/08/23 03:38:27;;;;;;;9.57;7.40;;;19.90;99.90;;;;;;4988312;28;20066;-62
2022/08/23 03:40:54;;;;;;;8.02;6.43;;;19.90;99.90;;;;;;4988369;28;20053;-61
2022/08/23 03:43:21;;;;;;;11.63;6.18;;;19.90;99.90;;;;;;4988182;28;20348;-59
2022/08/23 03:45:48;;;;;;;8.27;6.30;;;19.90;99.90;;;;;;4988387;28;20089;-61
2022/08/23 03:48:15;;;;;;;8.00;6.03;;;20.00;99.90;;;;;;4988220;28;20046;-60
2022/08/23 03:50:42;;;;;;;8.98;6.07;;;19.90;99.90;;;;;;4988262;28;20497;-60
2022/08/23 03:53:09;;;;;;;11.15;6.22;;;20.00;99.90;;;;;;4971026;28;20070;-61
2022/08/23 03:55:39;;;;;;;7.43;5.97;;;19.90;99.90;;;;;;4988168;28;20061;-60
2022/08/23 03:58:09;;;;;;;6.97;5.18;;;20.00;99.90;;;;;;4988360;28;20042;-61
2022/08/23 04:00:36;;;;;;;7.82;5.57;;;20.00;99.90;;;;;;4988019;28;20217;-61
2022/08/23 04:03:03;;;;;;;8.70;5.68;;;20.00;99.90;;;;;;4984973;28;20050;-60
2022/08/23 04:05:30;;;;;;;5.82;5.07;;;19.90;99.90;;;;;;4970360;28;20078;-61
2022/08/23 04:07:56;;;;;;;5.68;4.00;;;19.90;99.90;;;;;;4987861;28;20474;-60
2022/08/23 04:10:23;;;;;;;4.28;3.88;;;20.00;99.90;;;;;;4987902;28;20065;-63
2022/08/23 04:12:52;;;;;;;4.13;3.42;;;19.90;99.90;;;;;;4988419;28;20096;-60
2022/08/23 04:15:19;;;;;;;6.07;3.30;;;19.90;99.90;;;;;;4970571;28;20141;-61
2022/08/23 04:17:46;;;;;;;4.57;3.50;;;19.90;99.90;;;;;;4989718;28;20065;-61
2022/08/23 04:20:13;;;;;;;4.13;3.45;;;20.00;99.90;;;;;;4991726;28;20097;-61
2022/08/23 04:22:40;;;;;;;6.90;3.67;;;19.90;99.90;;;;;;4974386;28;20046;-61
2022/08/23 04:25:07;;;;;;;4.90;3.70;;;19.90;99.90;;;;;;4991171;28;20082;-61
2022/08/23 04:27:53;;;;;;;3.85;3.05;;;20.00;99.90;;;;;;4991738;28;20047;-60
2022/08/23 04:30:20;;;;;;;4.72;3.50;;;20.00;99.90;;;;;;4991683;28;20418;-61
2022/08/23 04:32:49;;;;;;;5.50;3.75;;;20.00;99.90;;;;;;4991954;28;20046;-61
2022/08/23 04:35:16;;;;;;;7.72;4.88;;;20.00;99.90;;;;;;4974057;28;20371;-61
2022/08/23 04:37:43;;;;;;;4.78;3.92;;;19.90;99.90;;;;;;4972924;28;20086;-61
2022/08/23 04:42:56;;;;;;;5.82;4.22;;;19.90;99.90;;;;;;4991375;28;20051;-61
2022/08/23 04:45:23;;;;;;;8.45;5.43;;;20.00;99.90;;;;;;4958109;28;20092;-61
2022/08/23 04:47:49;;;;;;;9.18;5.70;;;20.00;99.90;;;;;;4991182;28;20089;-61
2022/08/23 04:50:16;;;;;;;9.57;5.95;;;19.90;99.90;;;;;;4991316;28;20133;-61
2022/08/23 04:52:43;;;;;;;8.93;6.43;;;19.90;99.90;;;;;;4990746;28;20129;-60
2022/08/23 04:55:12;;;;;;;10.98;6.30;;;19.90;99.90;;;;;;4990828;28;20564;-61
2022/08/23 04:57:41;;;;;;;12.50;7.30;;;19.90;99.90;;;;;;4991174;28;20100;-60
2022/08/23 05:00:10;;;;;;;10.07;7.90;;;19.90;99.90;;;;;;4988777;28;20046;-61
2022/08/23 05:02:38;;;;;;;11.88;7.40;;;19.90;99.90;;;;;;4966562;28;20125;-62
2022/08/23 05:05:06;;;;;;;9.55;7.13;;;20.00;99.90;;;;;;4990814;28;20042;-62
2022/08/23 05:07:33;;;;;;;12.90;7.13;;;20.00;99.90;;;;;;4990585;28;20129;-61
2022/08/23 05:10:10;;;;;;;7.97;6.60;;;20.00;99.90;;;;;;4974681;28;20449;-61
2022/08/23 05:12:38;;;;;;;9.20;7.18;;;19.90;99.90;;;;;;4973373;28;20053;-60
2022/08/23 05:15:05;;;;;;;9.20;6.60;;;19.90;99.90;;;;;;4990763;28;20050;-61
2022/08/23 05:17:32;;;;;;;8.48;7.03;;;19.90;99.90;;;;;;4990581;28;20078;-60
2022/08/23 05:19:59;;;;;;;6.93;5.40;;;19.90;99.90;;;;;;4990529;28;20133;-60
2022/08/23 05:22:25;;;;;;;8.50;6.05;;;19.80;99.90;;;;;;4990608;28;20132;-61
2022/08/23 05:24:52;;;;;;;9.43;6.28;;;19.90;99.90;;;;;;4990770;28;20096;-61
2022/08/23 05:27:19;;;;;;;8.52;6.15;;;19.80;99.90;;;;;;4972941;28;20070;-62
2022/08/23 05:29:46;;;;;;;6.25;4.97;;;19.90;99.90;;;;;;4989309;28;20050;-62
2022/08/23 05:32:13;;;;;;;10.30;5.13;;;19.80;99.90;;;;;;4990297;28;20077;-62
2022/08/23 05:34:39;;;;;;;8.00;5.00;;;19.80;99.90;;;;;;4972764;28;20089;-61
2022/08/23 05:37:06;;;;;;;9.18;4.68;;;19.80;99.90;;;;;;4990205;28;20080;-64
2022/08/23 05:39:33;;;;;;;6.88;4.80;;;19.90;99.90;;;;;;4989946;28;20138;-61
2022/08/23 05:42:06;;;;;;;9.60;4.28;;;19.90;99.90;;;;;;4990153;28;20056;-62
2022/08/23 05:44:33;;;;;;;9.68;4.53;;;19.90;99.90;;;;;;4972816;28;20303;-61
2022/08/23 05:47:05;;;;;;;6.55;4.20;;;19.90;99.90;;;;;;4989853;28;20046;-60
2022/08/23 05:49:37;;;;;;;4.43;3.60;;;19.90;99.90;;;;;;4990206;28;20114;-61
2022/08/23 05:52:05;;;;;;;5.95;3.40;;;19.90;99.90;;;;;;4972696;28;20046;-61
2022/08/23 05:54:32;;;;;;;4.55;3.35;;;19.90;99.90;;;;;;4989337;28;20046;-60
2022/08/23 05:56:59;;;;;;;6.18;3.88;;;19.90;99.90;;;;;;4989670;28;20469;-61
2022/08/23 05:59:26;;;;;;;6.78;4.05;;;19.90;99.90;;;;;;4989500;28;20046;-58
2022/08/23 06:01:52;;;;;;;4.00;3.47;;;19.90;99.90;;;;;;4989664;28;20039;-60
2022/08/23 06:04:20;;;;;;;10.25;4.47;;;19.90;99.90;;;;;;4989878;28;20137;-60
2022/08/23 06:06:47;;;;;;;4.25;3.42;;;19.90;99.90;;;;;;4989695;28;20081;-62
2022/08/23 06:09:15;;;;;;;8.88;4.40;;;19.90;99.90;;;;;;4989343;28;20534;-62
2022/08/23 06:11:46;;;;;;;6.47;4.47;;;19.90;99.90;;;;;;4989543;28;20058;-61
2022/08/23 06:14:13;;;;;;;10.52;4.72;;;20.00;99.90;;;;;;4971916;28;20444;-61
2022/08/23 06:16:42;;;;;;;10.05;5.10;;;20.00;99.90;;;;;;4989879;28;20414;-61
2022/08/23 06:19:09;;;;;;;6.93;4.85;;;20.00;99.90;;;;;;4989333;28;20046;-61
2022/08/23 06:21:37;;;;;;;7.75;6.28;;;20.00;99.90;;;;;;4989416;28;20046;-61
2022/08/23 06:24:04;;;;;;;9.48;5.75;;;20.00;99.90;;;;;;4989263;28;20393;-62
2022/08/23 06:26:37;;;;;;;11.52;6.28;;;20.10;99.90;;;;;;4988377;28;20077;-61
2022/08/23 06:29:08;;;;;;;11.07;6.25;;;20.10;99.90;;;;;;4988776;28;20062;-61
2022/08/23 06:31:45;;;;;;;9.27;6.88;;;20.10;99.90;;;;;;4986452;28;20085;-61
2022/08/23 06:34:32;;;;;;;9.55;7.40;;;20.10;99.90;;;;;;4984157;28;20058;-61
2022/08/23 06:37:09;;;;;;;13.90;7.10;;;20.10;99.90;;;;;;4984232;28;20046;-61
2022/08/23 06:39:36;;;;;;;8.95;7.30;;;20.10;99.90;;;;;;4983680;28;20078;-60
2022/08/23 06:42:08;;;;;;;10.13;7.45;;;20.20;99.90;;;;;;4968659;28;20162;-62
2022/08/23 06:44:55;;;;;;;10.82;7.68;;;20.20;99.90;;;;;;4988007;28;20485;-61
2022/08/23 06:47:22;;;;;;;11.23;6.93;;;20.20;99.90;;;;;;4987560;28;20050;-62
2022/08/23 06:49:49;;;;;;;11.50;7.97;;;20.30;99.90;;;;;;4988669;28;20050;-61
2022/08/23 06:52:26;;;;;;;13.43;8.30;;;20.30;99.90;;;;;;4988484;28;20433;-61
2022/08/23 06:54:53;;;;;;;10.05;7.90;;;20.30;99.90;;;;;;4988755;28;20068;-61
2022/08/23 06:57:20;;;;;;;11.02;7.68;;;20.30;99.90;;;;;;4988394;28;20057;-60
2022/08/23 06:59:50;;;;;;;10.27;8.73;;;20.30;99.90;;;;;;4984753;28;20490;-61
2022/08/23 07:02:16;;;;;;;12.32;7.53;;;20.40;99.90;;;;;;4980720;28;20055;-61
2022/08/23 07:04:43;;;;;;;10.07;8.20;;;20.40;99.90;;;;;;4985565;28;20077;-62
2022/08/23 07:07:10;;;;;;;14.38;9.45;;;20.50;99.90;;;;;;4981141;28;20081;-62
2022/08/23 07:09:38;;;;;;;12.40;7.70;;;20.60;99.90;;;;;;4971030;28;20137;-60
2022/08/23 07:12:06;;;;;;;9.10;7.70;;;20.60;99.90;;;;;;4988292;28;20042;-61
2022/08/23 07:14:33;;;;;;;11.05;9.02;;;20.70;99.90;;;;;;4988109;28;20117;-60
2022/08/23 07:17:02;;;;;;;8.85;7.80;;;20.70;99.90;;;;;;4986952;28;20077;-61
2022/08/23 07:19:30;;;;;;;11.75;8.18;;;20.70;99.90;;;;;;4988536;28;20057;-60
2022/08/23 07:21:58;;;;;;;11.00;9.05;;;20.70;99.90;;;;;;4960998;28;20461;-62
2022/08/23 07:24:25;;;;;;;12.57;8.35;;;20.70;99.90;;;;;;4953160;28;20140;-61
2022/08/23 07:26:58;;;;;;;;;;;20.70;99.90;;;;;;4969847;28;20068;-61
2022/08/23 07:29:25;;;;;;;12.88;8.10;;;20.50;99.90;;;;;;4986349;28;19922;-60
2022/08/23 07:31:54;;;;;;;11.30;8.30;;;20.50;99.90;;;;;;4984280;28;20046;-60
2022/08/23 07:34:21;;;;;;;12.52;7.88;;;20.50;99.90;;;;;;4981032;28;20054;-60
2022/08/23 07:36:48;;;;;;;11.85;7.47;;;20.40;99.90;;;;;;4978961;28;20097;-60
2022/08/23 07:39:15;;;;;;;11.25;7.43;;;20.50;99.90;;;;;;4985153;28;20090;-61
2022/08/23 07:41:43;;;;;;;12.85;7.40;;;20.60;99.90;;;;;;4987754;28;20112;-60
2022/08/23 07:44:11;;;;;;;9.65;5.90;;;20.60;99.90;;;;;;4970763;28;20046;-60
2022/08/23 07:46:42;;;;;;;7.57;5.47;;;20.60;99.90;;;;;;4956383;28;20053;-60
2022/08/23 07:49:09;;;;;;;10.60;5.38;;;20.70;99.90;;;;;;4948870;28;20047;-61
2022/08/23 07:51:37;;;;;;;14.13;6.82;;;20.80;99.90;;;;;;4964390;28;20074;-62
2022/08/23 07:54:05;;;;;;;10.02;5.30;;;21.00;99.90;;;;;;4957460;28;20182;-61
2022/08/23 07:56:33;;;;;;;12.57;4.63;;;21.10;99.90;;;;;;4991804;28;20061;-61
2022/08/23 07:59:00;;;;;;;9.52;4.63;;;21.20;99.90;;;;;;4974726;28;20137;-61
2022/08/23 08:01:27;;;;;;;10.27;5.10;;;21.30;99.90;;;;;;4992455;28;20077;-62
2022/08/23 08:03:57;;;;;;;8.50;4.63;;;21.40;99.90;;;;;;4974343;28;20050;-59
2022/08/23 08:06:31;;;;;;;6.60;3.42;;;21.40;99.90;;;;;;4991845;28;20043;-61
2022/08/23 08:08:58;;;;;;;9.77;5.22;;;21.30;99.90;;;;;;4973968;28;20101;-61
2022/08/23 08:11:26;;;;;;;12.07;3.85;;;21.30;99.90;;;;;;4991802;28;20058;-61
2022/08/23 08:14:02;;;;;;;7.03;3.38;;;21.30;99.90;;;;;;4991481;28;20080;-61
2022/08/23 08:16:36;;;;;;;8.05;2.63;;;21.30;99.90;;;;;;4991666;28;20845;-61
2022/08/23 08:19:05;;;;;;;9.02;2.95;;;21.30;99.90;;;;;;4973726;28;20069;-61
2022/08/23 08:21:33;;;;;;;6.03;2.70;;;21.30;99.90;;;;;;4991317;28;20050;-66
2022/08/23 08:24:00;;;;;;;4.78;2.40;;;21.40;99.90;;;;;;4991153;28;20050;-60
2022/08/23 08:26:27;;;;;;;12.50;3.28;;;21.50;99.90;;;;;;4991852;28;20043;-61
2022/08/23 08:28:57;;;;;;;11.93;2.85;;;21.60;99.90;;;;;;4991147;28;20046;-61
2022/08/23 08:31:25;;;;;;;6.65;2.00;;;21.60;99.90;;;;;;4991422;28;20120;-60
2022/08/23 08:33:53;;;;;;;8.07;2.38;;;21.70;99.90;;;;;;4987363;28;20046;-61
2022/08/23 08:36:38;;;;;;;3.97;1.85;;;21.80;99.90;;;;;;4974110;28;20042;-61
2022/08/23 08:39:06;;;;;;;6.90;2.72;;;21.90;99.90;;;;;;4987084;28;20047;-61
2022/08/23 08:41:43;;;;;;;12.45;2.47;;;21.90;99.90;;;;;;4642521;28;9999812;-61
2022/08/23 08:44:36;;;;;;;5.28;1.92;;;22.00;99.90;;;;;;4985921;28;20054;-61
2022/08/23 08:47:11;;;;;;;5.82;2.10;;;22.10;99.90;;;;;;4942214;28;20377;-61
2022/08/23 08:50:01;;;;;;;6.00;3.10;;;22.20;99.90;;;;;;4969169;28;20096;-61
2022/08/23 08:52:30;;;;;;;4.75;2.65;;;22.20;99.90;;;;;;4976407;28;20124;-62
2022/08/23 08:55:26;;;;;;;4.25;1.90;;;22.30;99.90;;;;;;4968043;28;20497;-61
2022/08/23 08:57:53;;;;;;;3.85;2.15;;;22.30;99.90;;;;;;4967551;28;20058;-61
2022/08/23 09:00:22;;;;;;;7.43;2.67;;;22.30;99.90;;;;;;4967899;28;20050;-61
2022/08/23 09:02:51;;;;;;;6.22;2.50;;;22.40;99.90;;;;;;4985547;28;20055;-60
2022/08/23 09:05:26;;;;;;;4.18;1.65;;;22.20;99.90;;;;;;4966687;28;20049;-62
2022/08/23 09:07:57;;;;;;;3.72;1.80;;;22.20;99.90;;;;;;4986200;28;20058;-61
2022/08/23 09:10:29;;;;;;;7.85;2.20;;;22.10;99.90;;;;;;4985335;28;20104;-61
2022/08/23 09:13:17;;;;;;;5.43;2.60;;;22.10;99.90;;;;;;4987109;28;20130;-62
2022/08/23 09:15:52;;;;;;;3.88;2.05;;;22.20;99.90;;;;;;4969681;28;20046;-63
2022/08/23 09:18:22;;;;;;;5.50;2.15;;;22.10;99.90;;;;;;4987110;28;20137;-63
2022/08/23 09:20:51;;;;;;;8.43;2.78;;;22.30;99.90;;;;;;4953990;28;20046;-62
2022/08/23 09:23:24;;;;;;;2.72;1.70;;;22.30;99.90;;;;;;4969969;28;20054;-62
2022/08/23 09:25:58;;;;;;;5.47;2.10;;;22.40;99.90;;;;;;4969710;28;20081;-62
2022/08/23 09:28:30;;;;;;;6.72;2.20;;;22.40;99.90;;;;;;4974899;28;20050;-62
2022/08/23 09:30:57;;;;;;;6.40;2.35;;;22.50;99.90;;;;;;4969581;28;20307;-61
2022/08/23 09:33:26;;;;;;;4.80;2.70;;;22.60;99.90;;;;;;4969130;28;20050;-61
2022/08/23 09:36:23;;;;;;;5.82;2.10;;;22.60;99.90;;;;;;4966206;28;20089;-61
2022/08/23 09:39:00;;;;;;;8.50;3.15;;;22.60;99.90;;;;;;4979808;28;20081;-61
2022/08/23 09:41:35;;;;;;;6.65;1.95;;;22.70;99.90;;;;;;4963000;28;20396;-62
2022/08/23 09:44:12;;;;;;;6.15;1.40;;;22.70;99.90;;;;;;4965456;28;20548;-61
2022/08/23 09:46:41;;;;;;;5.45;1.60;;;22.90;99.90;;;;;;4969494;28;20046;-61
2022/08/23 09:49:20;;;;;;;10.40;2.55;;;23.00;99.90;;;;;;4986773;28;20045;-61
2022/08/23 09:51:47;;;;;;;12.13;1.65;;;23.10;99.90;;;;;;4968594;28;20327;-61
2022/08/23 09:54:33;;;;;;;3.63;1.65;;;23.20;99.90;;;;;;4942884;28;20086;-61
2022/08/23 09:57:00;;;;;;;;;;;23.30;99.90;;;;;;4964306;28;20489;-63
2022/08/23 09:59:38;;;;;;;4.20;1.95;;;23.50;99.90;;;;;;4978471;28;19933;-62
2022/08/23 10:02:06;;;;;;;5.28;1.63;;;23.70;99.90;;;;;;4969047;28;20085;-61
2022/08/23 10:04:41;;;;;;;19.67;3.22;;;23.80;99.90;;;;;;4941282;28;20471;-61
2022/08/23 10:07:31;;;;;;;5.97;1.27;;;23.70;99.90;;;;;;4986120;28;20042;-62
2022/08/23 10:10:31;;;;;;;11.10;1.48;;;23.80;99.90;;;;;;4955574;28;20113;-61
2022/08/23 10:12:58;;;;;;;7.28;1.83;;;23.80;99.90;;;;;;4965236;28;20109;-61
2022/08/23 10:15:42;;;;;;;3.67;1.45;;;23.80;99.90;;;;;;4968226;28;20355;-61
2022/08/23 10:18:27;;;;;;;3.50;1.88;;;23.80;99.90;;;;;;4968924;28;20184;-62
2022/08/23 10:21:01;;;;;;;4.88;1.42;;;23.80;99.90;;;;;;4968852;28;20058;-62
2022/08/23 10:23:41;;;;;;;7.65;1.77;;;23.70;99.90;;;;;;4968573;28;20112;-62
2022/08/23 10:26:15;;;;;;;4.03;1.42;;;23.90;99.90;;;;;;4968480;28;20050;-62
2022/08/23 10:32:18;;;;;;;4.68;1.30;;;23.70;99.90;;;;;;4946883;28;19935;-62
2022/08/23 10:34:54;;;;;;;6.03;1.40;;;23.70;99.90;;;;;;4984610;28;20426;-63
2022/08/23 10:37:45;;;;;;;2.67;1.15;;;23.90;99.90;;;;;;4985564;28;20133;-61
2022/08/23 10:40:22;;;;;;;10.25;1.48;;;23.90;99.90;;;;;;4968274;28;20098;-61
2022/08/23 10:43:14;;;;;;;6.63;1.60;;;24.00;99.90;;;;;;4968774;28;20643;-61
2022/08/23 10:45:43;;;;;;;2.90;1.00;;;24.10;99.90;;;;;;4977888;28;20132;-61
2022/08/23 10:48:31;;;;;;;2.83;1.00;;;24.10;99.90;;;;;;4968397;28;20052;-60
2022/08/23 10:51:35;;;;;;;2.25;0.90;;;24.00;99.90;;;;;;4983298;28;20069;-60
2022/08/23 10:54:22;;;;;;;3.22;0.93;;;24.00;99.90;;;;;;4921415;28;20061;-61
2022/08/23 10:56:52;;;;;;;3.22;1.58;;;24.00;99.90;;;;;;4970382;28;20038;-61
2022/08/23 10:59:22;;;;;;;2.55;0.90;;;24.10;99.90;;;;;;4985775;28;20575;-61
2022/08/23 11:01:52;;;;;;;7.25;1.33;;;24.10;99.90;;;;;;4968648;28;20089;-61
2022/08/23 11:04:46;;;;;;;8.85;1.40;;;24.20;99.90;;;;;;4985459;28;20132;-62
2022/08/23 11:07:34;;;;;;;7.10;0.88;;;24.40;99.90;;;;;;4969508;28;20054;-62
2022/08/23 11:10:10;;;;;;;4.45;1.40;;;24.40;99.90;;;;;;4967895;28;20108;-62
2022/08/23 11:12:54;;;;;;;1.23;0.98;;;24.40;99.90;;;;;;4985556;28;20061;-61
2022/08/23 11:15:30;;;;;;;1.20;1.00;;;24.40;99.90;;;;;;4951668;28;20085;-60
2022/08/23 11:17:59;;;;;;;7.78;1.15;;;24.50;99.90;;;;;;4967981;28;20046;-62
2022/08/23 11:20:48;;;;;;;6.25;1.05;;;24.60;99.90;;;;;;4968184;28;20133;-62
2022/08/23 11:23:15;;;;;;;6.97;1.13;;;24.70;99.90;;;;;;4985521;28;20148;-61
2022/08/23 11:25:43;;;;;;;3.30;1.00;;;24.80;99.90;;;;;;4984938;28;20101;-61
2022/08/23 11:28:25;;;;;;;2.75;1.23;;;25.00;99.90;;;;;;4983803;28;20100;-61
2022/08/23 11:30:57;;;;;;;2.50;1.10;;;25.00;99.90;;;;;;4984227;28;20540;-62
2022/08/23 11:33:26;;;;;;;2.53;0.95;;;25.20;99.90;;;;;;4967573;28;20295;-62
2022/08/23 11:36:10;;;;;;;5.95;1.13;;;25.30;99.90;;;;;;4981170;28;20573;-62
2022/08/23 11:38:45;;;;;;;2.00;0.90;;;25.40;99.90;;;;;;4984291;28;20305;-62
2022/08/23 11:41:18;;;;;;;3.95;0.95;;;25.30;99.90;;;;;;4984281;28;20081;-62
2022/08/23 11:44:12;;;;;;;9.65;1.50;;;25.40;99.90;;;;;;4985113;28;20124;-61
2022/08/23 11:46:56;;;;;;;4.22;0.90;;;25.40;99.90;;;;;;4972822;28;20166;-63
2022/08/23 11:49:29;;;;;;;2.13;1.10;;;25.30;99.90;;;;;;4960870;28;20093;-62
2022/08/23 11:52:08;;;;;;;;;;;25.20;99.90;;;;;;4984638;28;20043;-61
2022/08/23 11:54:48;;;;;;;3.42;0.93;;;25.10;99.90;;;;;;4978289;28;20373;-61
2022/08/23 11:57:50;;;;;;;3.05;1.00;;;25.20;99.90;;;;;;4984088;28;20060;-60
2022/08/23 12:00:19;;;;;;;2.50;1.10;;;25.40;99.90;;;;;;4984629;28;20521;-61
2022/08/23 12:03:34;;;;;;;1.55;1.00;;;25.50;99.90;;;;;;4967964;28;20081;-61
2022/08/23 12:06:12;;;;;;;4.43;0.90;;;25.50;99.90;;;;;;4904731;29;20112;-60
2022/08/23 12:09:00;;;;;;;3.50;1.58;;;25.40;99.90;;;;;;4960072;28;20575;-61
2022/08/23 12:11:55;;;;;;;2.70;1.00;;;25.40;99.90;;;;;;4968211;28;20057;-61
2022/08/23 12:14:31;;;;;;;1.90;1.00;;;25.40;99.90;;;;;;4984522;28;20058;-62
2022/08/23 12:16:59;;;;;;;4.72;1.15;;;25.30;99.90;;;;;;4984052;28;20053;-62
2022/08/23 12:19:39;;;;;;;2.47;0.85;;;25.20;99.90;;;;;;4967049;28;20457;-62
2022/08/23 12:22:18;;;;;;;2.00;0.80;;;25.10;99.90;;;;;;4967480;28;20050;-62
2022/08/23 12:24:52;;;;;;;2.25;1.17;;;24.80;99.90;;;;;;4984361;28;20518;-62
2022/08/23 12:27:26;;;;;;;2.17;1.10;;;24.70;99.90;;;;;;4966455;28;20050;-61
2022/08/23 12:30:08;;;;;;;1.55;0.77;;;24.70;99.90;;;;;;4968212;28;20113;-61
2022/08/23 12:32:52;;;;;;;7.22;1.00;;;24.60;99.90;;;;;;4983782;28;20592;-61
2022/08/23 12:35:37;;;;;;;3.60;0.70;;;24.70;99.90;;;;;;4975095;28;20316;-61
2022/08/23 12:38:37;;;;;;;3.42;0.60;;;24.80;99.90;;;;;;4984432;28;20050;-62
2022/08/23 12:41:27;;;;;;;1.33;0.70;;;25.00;99.90;;;;;;4939244;28;20582;-61
2022/08/23 12:44:04;;;;;;;3.63;0.57;;;25.00;99.90;;;;;;4963154;28;20047;-60
2022/08/23 12:46:42;;;;;;;2.45;0.70;;;25.00;99.90;;;;;;4988316;28;20046;-62
2022/08/23 12:49:21;;;;;;;1.27;0.65;;;25.10;99.90;;;;;;4976549;28;20098;-62
2022/08/23 12:51:49;;;;;;;7.63;0.73;;;25.20;99.90;;;;;;4956961;28;20110;-61
2022/08/23 12:54:18;;;;;;;7.43;1.00;;;25.30;99.90;;;;;;4983025;28;20101;-62
2022/08/23 12:56:46;;;;;;;6.60;1.98;;;25.40;99.90;;;;;;4983265;28;20050;-61
2022/08/23 12:59:33;;;;;;;5.95;0.68;;;25.40;99.90;;;;;;4984662;28;20101;-62
2022/08/23 13:02:29;;;;;;;3.63;0.75;;;25.50;99.90;;;;;;4966408;28;20050;-62
2022/08/23 13:05:02;;;;;;;1.27;0.70;;;25.70;99.90;;;;;;4976366;28;20053;-62
2022/08/23 13:07:31;;;;;;;15.10;2.00;;;25.70;99.90;;;;;;4966363;28;20054;-62
2022/08/23 13:10:00;;;;;;;7.85;1.58;;;25.80;99.90;;;;;;4947175;28;20055;-63
2022/08/23 13:12:27;;;;;;;10.50;1.50;;;25.90;99.90;;;;;;4960167;28;20494;-62
2022/08/23 13:14:55;;;;;;;1.83;0.93;;;26.00;99.90;;;;;;4983391;28;20269;-62
2022/08/23 13:17:38;;;;;;;5.30;0.80;;;26.30;99.90;;;;;;4968111;28;20567;-62
2022/08/23 13:20:11;;;;;;;6.30;0.90;;;26.20;99.90;;;;;;4966605;28;20054;-63
2022/08/23 13:22:38;;;;;;;1.73;0.33;;;26.30;99.90;;;;;;4967385;28;20120;-62